createdAt,value
2024-03-01T00:00:41.992Z,16.02
2024-03-01T00:03:10.397Z,16.08
2024-03-01T00:05:37.622Z,15.80
2024-03-01T00:08:04.809Z,15.00
2024-03-01T00:10:31.747Z,15.90
2024-03-01T00:12:58.999Z,14.85
2024-03-01T00:15:26.184Z,16.00
2024-03-01T00:17:53.389Z,16.10
2024-03-01T00:20:20.525Z,17.95
2024-03-01T00:22:48.725Z,18.17
2024-03-01T00:25:16.034Z,17.48
2024-03-01T00:27:43.261Z,17.55
2024-03-01T00:30:10.740Z,17.42
2024-03-01T00:32:37.947Z,16.85
2024-03-01T00:35:05.206Z,17.42
2024-03-01T00:37:32.410Z,16.52
2024-03-01T00:39:59.639Z,17.25
2024-03-01T00:42:26.902Z,17.05
2024-03-01T00:44:54.375Z,17.95
2024-03-01T00:47:22.446Z,17.42
2024-03-01T00:49:49.675Z,16.88
2024-03-01T00:52:16.975Z,18.02
2024-03-01T00:54:43.864Z,17.77
2024-03-01T00:57:12.379Z,17.23
2024-03-01T00:59:39.509Z,16.77
2024-03-01T01:02:08.558Z,16.63
2024-03-01T01:04:36.625Z,16.58
2024-03-01T01:07:03.867Z,15.93
2024-03-01T01:09:31.109Z,16.55
2024-03-01T01:11:58.829Z,14.95
2024-03-01T01:14:26.032Z,15.10
2024-03-01T01:16:53.244Z,14.77
2024-03-01T01:19:20.497Z,14.82
2024-03-01T01:21:47.742Z,14.38
2024-03-01T01:24:14.907Z,14.50
2024-03-01T01:26:42.023Z,14.55
2024-03-01T01:29:08.873Z,12.88
2024-03-01T01:31:36.109Z,12.48
2024-03-01T01:34:03.352Z,12.88
2024-03-01T01:36:30.638Z,12.35
2024-03-01T01:38:57.945Z,12.65
2024-03-01T01:41:25.109Z,11.60
2024-03-01T01:43:52.234Z,11.52
2024-03-01T01:46:19.423Z,11.75
2024-03-01T01:48:46.782Z,10.48
2024-03-01T01:51:18.399Z,10.50
2024-03-01T01:53:45.678Z,9.25
2024-03-01T01:56:14.760Z,9.43
2024-03-01T01:58:42.734Z,9.73
2024-03-01T02:01:10.630Z,9.10
2024-03-01T02:03:39.437Z,9.68
2024-03-01T02:06:07.037Z,10.23
2024-03-01T02:08:35.257Z,9.50
2024-03-01T02:11:03.262Z,9.20
2024-03-01T02:13:30.677Z,9.73
2024-03-01T02:15:57.966Z,9.05
2024-03-01T02:18:24.737Z,8.63
2024-03-01T02:21:02.011Z,8.88
2024-03-01T02:23:29.318Z,8.95
2024-03-01T02:25:56.604Z,8.88
2024-03-01T02:28:24.019Z,9.15
2024-03-01T02:30:54.329Z,7.68
2024-03-01T02:33:21.802Z,8.77
2024-03-01T02:35:49.221Z,8.48
2024-03-01T02:38:16.710Z,8.23
2024-03-01T02:40:44.268Z,9.48
2024-03-01T02:43:11.658Z,9.68
2024-03-01T02:45:38.934Z,8.68
2024-03-01T02:48:06.867Z,8.85
2024-03-01T02:50:34.427Z,8.13
2024-03-01T02:53:01.156Z,8.68
2024-03-01T02:55:28.097Z,8.43
2024-03-01T02:57:56.575Z,8.35
2024-03-01T03:00:24.100Z,8.75
2024-03-01T03:02:52.896Z,8.27
2024-03-01T03:05:20.112Z,8.65
2024-03-01T03:07:51.386Z,8.38
2024-03-01T03:10:18.789Z,8.35
2024-03-01T03:12:46.280Z,8.77
2024-03-01T03:15:14.663Z,8.05
2024-03-01T03:17:41.971Z,7.85
2024-03-01T03:20:12.257Z,8.30
2024-03-01T03:22:40.048Z,8.57
2024-03-01T03:25:09.642Z,8.55
2024-03-01T03:27:37.373Z,7.53
2024-03-01T03:30:07.626Z,8.13
2024-03-01T03:32:35.356Z,8.25
2024-03-01T03:35:02.590Z,7.63
2024-03-01T03:37:29.888Z,6.95
2024-03-01T03:39:57.098Z,7.53
2024-03-01T03:42:23.875Z,7.55
2024-03-01T03:44:51.009Z,7.63
2024-03-01T03:47:18.180Z,6.80
2024-03-01T03:49:48.066Z,7.47
2024-03-01T03:52:15.242Z,6.72
2024-03-01T03:54:42.462Z,7.10
2024-03-01T03:57:09.584Z,7.75
2024-03-01T03:59:36.829Z,6.60
2024-03-01T04:02:04.178Z,6.85
2024-03-01T04:04:31.572Z,6.65
2024-03-01T04:07:02.004Z,6.78
2024-03-01T04:09:29.220Z,6.80
2024-03-01T04:11:57.236Z,6.80
2024-03-01T04:14:24.483Z,7.28
2024-03-01T04:16:51.675Z,6.45
2024-03-01T04:19:18.897Z,7.05
2024-03-01T04:21:46.349Z,7.38
2024-03-01T04:24:13.905Z,8.15
2024-03-01T04:26:41.291Z,7.85
2024-03-01T04:29:08.609Z,7.88
2024-03-01T04:31:37.126Z,8.80
2024-03-01T04:34:07.410Z,7.88
2024-03-01T04:36:35.029Z,8.60
2024-03-01T04:39:07.108Z,8.95
2024-03-01T04:41:34.043Z,8.25
2024-03-01T04:44:01.189Z,8.48
2024-03-01T04:46:28.464Z,8.00
2024-03-01T04:48:56.730Z,9.15
2024-03-01T04:51:25.297Z,8.10
2024-03-01T04:53:52.623Z,9.35
2024-03-01T04:56:19.836Z,9.02
2024-03-01T04:58:47.026Z,9.30
2024-03-01T05:01:16.672Z,9.32
2024-03-01T05:03:45.598Z,9.05
2024-03-01T05:06:12.858Z,9.05
2024-03-01T05:08:39.711Z,8.65
2024-03-01T05:11:07.357Z,9.10
2024-03-01T05:13:34.446Z,8.98
2024-03-01T05:16:01.975Z,9.32
2024-03-01T05:18:29.238Z,8.20
2024-03-01T05:20:56.135Z,8.90
2024-03-01T05:23:23.374Z,8.13
2024-03-01T05:25:50.844Z,9.40
2024-03-01T05:28:18.105Z,9.00
2024-03-01T05:30:50.093Z,9.75
2024-03-01T05:33:20.300Z,8.77
2024-03-01T05:35:47.818Z,8.80
2024-03-01T05:38:15.127Z,9.38
2024-03-01T05:40:46.862Z,9.60
2024-03-01T05:43:19.649Z,9.40
2024-03-01T05:45:46.872Z,9.85
2024-03-01T05:48:14.516Z,9.55
2024-03-01T05:50:41.812Z,8.90
2024-03-01T05:53:15.669Z,8.82
2024-03-01T05:55:43.768Z,8.85
2024-03-01T05:58:11.785Z,9.05
2024-03-01T06:00:41.493Z,9.40
2024-03-01T06:03:08.689Z,9.90
2024-03-01T06:05:35.424Z,9.27
2024-03-01T06:08:02.719Z,9.18
2024-03-01T06:10:30.084Z,9.57
2024-03-01T06:12:59.534Z,9.07
2024-03-01T06:15:27.519Z,8.68
2024-03-01T06:17:54.858Z,9.27
2024-03-01T06:20:21.672Z,9.38
2024-03-01T06:22:48.887Z,9.43
2024-03-01T06:25:16.203Z,8.73
2024-03-01T06:27:43.482Z,8.48
2024-03-01T06:30:10.836Z,9.10
2024-03-01T06:32:38.113Z,8.60
2024-03-01T06:35:05.825Z,8.23
2024-03-01T06:37:33.330Z,7.82
2024-03-01T06:40:01.691Z,8.68
2024-03-01T06:42:29.166Z,8.40
2024-03-01T06:44:56.361Z,8.73
2024-03-01T06:47:23.739Z,8.65
2024-03-01T06:49:50.996Z,8.27
2024-03-01T06:52:18.206Z,7.63
2024-03-01T06:54:48.189Z,8.07
2024-03-01T06:59:42.221Z,7.65
2024-03-01T07:02:09.501Z,7.45
2024-03-01T07:04:36.861Z,7.43
2024-03-01T07:07:05.052Z,7.07
2024-03-01T07:09:36.100Z,7.93
2024-03-01T07:12:03.675Z,7.97
2024-03-01T07:14:31.105Z,8.07
2024-03-01T07:16:58.312Z,7.53
2024-03-01T07:19:25.162Z,7.57
2024-03-01T07:21:52.530Z,6.28
2024-03-01T07:24:20.163Z,6.65
2024-03-01T07:26:47.600Z,6.47
2024-03-01T07:29:14.756Z,6.60
2024-03-01T07:31:42.042Z,7.85
2024-03-01T07:34:09.278Z,6.88
2024-03-01T07:36:36.513Z,6.00
2024-03-01T07:39:04.857Z,6.25
2024-03-01T07:41:31.612Z,5.57
2024-03-01T07:43:58.835Z,5.85
2024-03-01T07:46:26.064Z,5.70
2024-03-01T07:48:53.232Z,5.35
2024-03-01T07:51:20.420Z,5.70
2024-03-01T07:53:48.886Z,5.75
2024-03-01T07:56:16.464Z,5.10
2024-03-01T07:58:43.707Z,5.82
2024-03-01T08:01:11.276Z,5.05
2024-03-01T08:03:38.516Z,5.55
2024-03-01T08:06:05.865Z,5.75
2024-03-01T08:08:42.767Z,5.53
2024-03-01T08:11:10.708Z,4.80
2024-03-01T08:13:38.633Z,4.95
2024-03-01T08:16:11.898Z,5.05
2024-03-01T08:18:41.231Z,4.93
2024-03-01T08:21:08.618Z,5.03
2024-03-01T08:23:42.556Z,6.13
2024-03-01T08:26:19.428Z,5.25
2024-03-01T08:28:48.257Z,4.72
2024-03-01T08:31:35.216Z,4.82
2024-03-01T08:34:09.414Z,5.00
2024-03-01T08:36:38.387Z,4.95
2024-03-01T08:39:17.397Z,5.13
2024-03-01T08:41:46.430Z,4.40
2024-03-01T08:44:55.624Z,4.45
2024-03-01T08:47:45.490Z,3.83
2024-03-01T08:50:27.595Z,4.68
2024-03-01T08:52:55.571Z,4.35
2024-03-01T08:55:41.161Z,4.30
2024-03-01T08:58:19.951Z,3.88
2024-03-01T09:00:52.101Z,4.28
2024-03-01T09:03:21.916Z,4.53
2024-03-01T09:05:49.028Z,4.93
2024-03-01T09:08:23.398Z,3.83
2024-03-01T09:10:54.414Z,4.13
2024-03-01T09:13:22.977Z,4.13
2024-03-01T09:15:51.277Z,4.10
2024-03-01T09:18:35.810Z,3.55
2024-03-01T09:21:03.091Z,4.13
2024-03-01T09:23:30.499Z,4.35
2024-03-01T09:26:11.503Z,3.80
2024-03-01T09:28:39.007Z,4.10
2024-03-01T09:31:06.604Z,4.38
2024-03-01T09:33:33.491Z,4.20
2024-03-01T09:36:00.671Z,4.55
2024-03-01T09:38:28.489Z,4.28
2024-03-01T09:41:45.793Z,3.72
2024-03-01T09:44:37.647Z,4.60
2024-03-01T09:47:13.863Z,5.05
2024-03-01T09:50:02.494Z,4.57
2024-03-01T09:52:29.778Z,4.55
2024-03-01T09:55:08.633Z,5.40
2024-03-01T09:57:56.896Z,4.70
2024-03-01T10:00:28.915Z,5.18
2024-03-01T10:03:17.581Z,4.25
2024-03-01T10:06:16.163Z,5.18
2024-03-01T10:08:50.605Z,5.13
2024-03-01T10:11:30.838Z,5.05
2024-03-01T10:14:03.922Z,4.78
2024-03-01T10:16:31.112Z,5.47
2024-03-01T10:19:08.307Z,5.43
2024-03-01T10:21:50.491Z,5.82
2024-03-01T10:24:32.165Z,5.35
2024-03-01T10:27:27.703Z,5.50
2024-03-01T10:30:11.824Z,5.93
2024-03-01T10:33:10.669Z,5.63
2024-03-01T10:36:03.719Z,5.78
2024-03-01T10:38:30.841Z,5.97
2024-03-01T10:41:23.262Z,5.95
2024-03-01T10:44:31.283Z,6.32
2024-03-01T10:47:19.839Z,6.63
2024-03-01T10:50:15.285Z,6.55
2024-03-01T10:52:44.034Z,6.18
2024-03-01T10:55:21.923Z,5.50
2024-03-01T10:58:00.545Z,5.38
2024-03-01T11:00:28.336Z,5.63
2024-03-01T11:03:19.422Z,4.90
2024-03-01T11:06:09.917Z,5.10
2024-03-01T11:08:55.696Z,5.20
2024-03-01T11:11:35.308Z,5.07
2024-03-01T11:14:05.348Z,5.38
2024-03-01T11:16:35.225Z,5.00
2024-03-01T11:19:06.891Z,4.72
2024-03-01T11:21:37.219Z,4.97
2024-03-01T11:24:09.608Z,4.22
2024-03-01T11:26:44.039Z,3.50
2024-03-01T11:29:52.562Z,3.20
2024-03-01T11:32:23.282Z,3.00
2024-03-01T11:35:10.930Z,3.60
2024-03-01T11:37:59.352Z,3.00
2024-03-01T11:40:35.459Z,3.20
2024-03-01T11:43:40.906Z,3.15
2024-03-01T11:46:41.023Z,2.70
2024-03-01T11:49:29.043Z,3.25
2024-03-01T11:52:47.716Z,3.20
2024-03-01T11:55:14.940Z,3.78
2024-03-01T11:57:42.138Z,3.40
2024-03-01T12:00:48.615Z,3.72
2024-03-01T12:04:01.960Z,4.05
2024-03-01T12:06:57.330Z,3.92
2024-03-01T12:09:33.122Z,4.20
2024-03-01T12:12:20.922Z,4.32
2024-03-01T12:14:54.457Z,3.75
2024-03-01T12:17:51.907Z,4.32
2024-03-01T12:20:19.162Z,3.58
2024-03-01T12:23:07.451Z,3.70
2024-03-01T12:25:37.700Z,3.67
2024-03-01T12:28:27.813Z,3.83
2024-03-01T12:31:33.870Z,4.07
2024-03-01T12:34:39.288Z,4.30
2024-03-01T12:37:19.085Z,4.38
2024-03-01T12:40:12.364Z,4.25
2024-03-01T12:43:09.590Z,5.70
2024-03-01T12:45:53.252Z,5.03
2024-03-01T12:48:39.995Z,5.60
2024-03-01T12:51:15.129Z,6.00
2024-03-01T12:53:57.865Z,5.80
2024-03-01T12:56:26.272Z,4.60
2024-03-01T12:59:19.757Z,5.10
2024-03-01T13:02:27.238Z,4.28
2024-03-01T13:05:27.636Z,4.70
2024-03-01T13:07:59.340Z,4.43
2024-03-01T13:10:27.975Z,4.88
2024-03-01T13:13:00.863Z,5.50
2024-03-01T13:15:40.052Z,5.82
2024-03-01T13:18:13.516Z,6.57
2024-03-01T13:21:03.501Z,6.68
2024-03-01T13:24:08.002Z,5.90
2024-03-01T13:27:14.554Z,5.07
2024-03-01T13:32:29.981Z,4.07
2024-03-01T13:35:12.769Z,4.00
2024-03-01T13:37:59.079Z,3.78
2024-03-01T13:40:51.246Z,3.70
2024-03-01T13:43:18.490Z,3.90
2024-03-01T13:45:45.706Z,3.50
2024-03-01T13:48:24.523Z,3.25
2024-03-01T13:50:53.856Z,3.85
2024-03-01T13:53:22.483Z,3.95
2024-03-01T13:55:51.360Z,3.53
2024-03-01T13:58:19.638Z,2.80
2024-03-01T14:00:57.788Z,3.47
2024-03-01T14:03:26.252Z,3.42
2024-03-01T14:05:57.215Z,3.22
2024-03-01T14:08:26.085Z,3.47
2024-03-01T14:10:54.517Z,3.30
2024-03-01T14:13:26.303Z,3.85
2024-03-01T14:16:03.291Z,3.38
2024-03-01T14:18:31.058Z,4.15
2024-03-01T14:20:58.214Z,3.97
2024-03-01T14:23:26.116Z,4.95
2024-03-01T14:25:53.520Z,4.78
2024-03-01T14:28:21.469Z,4.90
2024-03-01T14:30:49.351Z,5.38
2024-03-01T14:33:21.935Z,5.43
2024-03-01T14:35:49.172Z,4.88
2024-03-01T14:38:22.221Z,4.57
2024-03-01T14:40:56.937Z,4.85
2024-03-01T14:43:24.728Z,5.15
2024-03-01T14:45:55.435Z,4.57
2024-03-01T14:48:31.410Z,4.70
2024-03-01T14:50:59.366Z,4.65
2024-03-01T14:53:47.170Z,3.80
2024-03-01T14:56:15.084Z,4.00
2024-03-01T14:58:45.226Z,4.38
2024-03-01T15:01:13.827Z,4.35
2024-03-01T15:03:41.430Z,4.47
2024-03-01T15:06:09.989Z,4.13
2024-03-01T15:08:37.994Z,4.25
2024-03-01T15:11:26.222Z,3.90
2024-03-01T15:13:53.422Z,3.70
2024-03-01T15:16:22.573Z,4.00
2024-03-01T15:18:50.315Z,4.10
2024-03-01T15:21:18.873Z,3.53
2024-03-01T15:23:46.256Z,4.20
2024-03-01T15:26:13.551Z,3.80
2024-03-01T15:28:41.165Z,4.05
2024-03-01T15:31:10.209Z,4.40
2024-03-01T15:33:37.494Z,3.30
2024-03-01T15:36:05.033Z,3.42
2024-03-01T15:38:32.296Z,4.00
2024-03-01T15:41:00.080Z,3.38
2024-03-01T15:43:27.475Z,3.50
2024-03-01T15:45:54.681Z,2.83
2024-03-01T15:48:22.090Z,2.92
2024-03-01T15:50:49.308Z,3.00
2024-03-01T15:53:20.562Z,3.25
2024-03-01T15:55:58.052Z,3.10
2024-03-01T15:58:27.247Z,2.88
2024-03-01T16:00:55.815Z,2.67
2024-03-01T16:03:23.869Z,3.00
2024-03-01T16:05:52.810Z,2.90
2024-03-01T16:08:20.931Z,3.17
2024-03-01T16:10:59.157Z,3.58
2024-03-01T16:13:34.414Z,3.47
2024-03-01T16:16:04.544Z,3.50
2024-03-01T16:18:34.516Z,3.72
2024-03-01T16:23:29.550Z,3.35
2024-03-01T16:25:56.785Z,3.60
2024-03-01T16:28:26.792Z,2.85
2024-03-01T16:33:26.428Z,2.72
2024-03-01T16:36:10.305Z,2.80
2024-03-01T16:38:42.233Z,2.90
2024-03-01T16:41:40.852Z,3.63
2024-03-01T16:44:43.741Z,3.00
2024-03-01T16:47:12.333Z,2.45
2024-03-01T16:49:41.233Z,2.42
2024-03-01T16:52:10.612Z,2.75
2024-03-01T16:54:41.746Z,3.50
2024-03-01T16:57:27.509Z,3.45
2024-03-01T16:59:55.011Z,2.85
2024-03-01T17:02:35.475Z,4.03
2024-03-01T17:05:13.371Z,4.13
2024-03-01T17:07:51.375Z,4.32
2024-03-01T17:10:29.504Z,3.92
2024-03-01T17:12:59.614Z,4.00
2024-03-01T17:15:27.609Z,3.55
2024-03-01T17:17:54.680Z,3.28
2024-03-01T17:20:23.232Z,3.60
2024-03-01T17:22:52.082Z,4.10
2024-03-01T17:25:23.037Z,3.58
2024-03-01T17:27:50.250Z,4.20
2024-03-01T17:30:17.142Z,3.92
2024-03-01T17:32:47.342Z,4.43
2024-03-01T17:35:17.780Z,4.43
2024-03-01T17:37:47.338Z,5.32
2024-03-01T17:40:14.789Z,5.32
2024-03-01T17:42:45.461Z,4.75
2024-03-01T17:45:12.691Z,4.90
2024-03-01T17:47:45.859Z,4.20
2024-03-01T17:50:15.502Z,4.82
2024-03-01T17:52:42.775Z,4.50
2024-03-01T17:55:10.233Z,4.90
2024-03-01T17:57:37.476Z,5.30
2024-03-01T18:00:06.641Z,6.78
2024-03-01T18:02:33.890Z,7.10
2024-03-01T18:05:01.245Z,6.60
2024-03-01T18:07:29.623Z,6.45
2024-03-01T18:09:59.865Z,6.10
2024-03-01T18:12:32.540Z,6.75
2024-03-01T18:15:05.656Z,6.82
2024-03-01T18:17:35.552Z,8.00
2024-03-01T18:20:05.186Z,6.95
2024-03-01T18:22:34.948Z,6.90
2024-03-01T18:25:04.563Z,7.10
2024-03-01T18:27:41.920Z,5.88
2024-03-01T18:30:08.978Z,6.05
2024-03-01T18:32:38.573Z,6.43
2024-03-01T18:35:06.325Z,6.30
2024-03-01T18:37:35.390Z,7.57
2024-03-01T18:40:04.281Z,7.47
2024-03-01T18:42:33.417Z,7.38
2024-03-01T18:45:00.638Z,7.70
2024-03-01T18:47:30.464Z,7.47
2024-03-01T18:50:00.882Z,7.90
2024-03-01T18:52:29.185Z,7.63
2024-03-01T18:54:58.804Z,7.80
2024-03-01T18:57:25.690Z,7.72
2024-03-01T18:59:55.605Z,7.30
2024-03-01T19:02:28.802Z,6.97
2024-03-01T19:04:58.835Z,8.05
2024-03-01T19:07:28.047Z,7.53
2024-03-01T19:09:55.869Z,7.20
2024-03-01T19:12:24.601Z,7.30
2024-03-01T19:14:52.373Z,8.10
2024-03-01T19:17:19.799Z,8.23
2024-03-01T19:19:47.184Z,9.52
2024-03-01T19:22:14.532Z,9.13
2024-03-01T19:24:47.084Z,8.77
2024-03-01T19:27:16.442Z,8.25
2024-03-01T19:29:48.842Z,7.82
2024-03-01T19:32:16.764Z,8.65
2024-03-01T19:34:43.942Z,8.45
2024-03-01T19:37:16.206Z,8.18
2024-03-01T19:39:43.485Z,8.27
2024-03-01T19:42:10.753Z,8.05
2024-03-01T19:44:41.434Z,8.50
2024-03-01T19:47:09.262Z,7.70
2024-03-01T19:49:38.825Z,8.30
2024-03-01T19:52:08.663Z,8.20
2024-03-01T19:54:40.971Z,8.73
2024-03-01T19:57:16.288Z,8.00
2024-03-01T19:59:43.572Z,7.57
2024-03-01T20:02:16.172Z,8.25
2024-03-01T20:04:43.414Z,8.05
2024-03-01T20:07:10.411Z,8.30
2024-03-01T20:09:37.880Z,8.15
2024-03-01T20:12:07.284Z,8.70
2024-03-01T20:14:34.511Z,8.65
2024-03-01T20:17:01.733Z,8.55
2024-03-01T20:19:28.982Z,8.75
2024-03-01T20:21:56.239Z,8.75
2024-03-01T20:24:23.465Z,8.57
2024-03-01T20:26:52.360Z,9.05
2024-03-01T20:29:22.121Z,9.52
2024-03-01T20:31:49.059Z,8.98
2024-03-01T20:34:18.710Z,8.93
2024-03-01T20:36:45.957Z,9.13
2024-03-01T20:39:13.566Z,9.07
2024-03-01T20:41:40.432Z,10.07
2024-03-01T20:44:07.668Z,9.18
2024-03-01T20:46:39.975Z,8.95
2024-03-01T20:49:07.365Z,9.38
2024-03-01T20:51:34.678Z,9.40
2024-03-01T20:54:01.864Z,9.00
2024-03-01T20:56:29.085Z,8.32
2024-03-01T20:58:58.613Z,9.60
2024-03-01T21:01:28.450Z,9.57
2024-03-01T21:03:58.027Z,8.65
2024-03-01T21:06:25.385Z,9.93
2024-03-01T21:08:52.209Z,10.00
2024-03-01T21:11:21.064Z,9.85
2024-03-01T21:13:49.125Z,9.50
2024-03-01T21:16:16.744Z,9.27
2024-03-01T21:18:44.209Z,8.85
2024-03-01T21:21:13.959Z,8.48
2024-03-01T21:23:41.324Z,7.90
2024-03-01T21:26:08.676Z,9.25
2024-03-01T21:28:36.522Z,9.32
2024-03-01T21:31:05.874Z,8.30
2024-03-01T21:33:33.218Z,9.50
2024-03-01T21:36:00.416Z,8.70
2024-03-01T21:38:27.567Z,9.38
2024-03-01T21:40:54.830Z,7.43
2024-03-01T21:43:24.354Z,8.45
2024-03-01T21:45:53.701Z,8.85
2024-03-01T21:48:20.961Z,9.65
2024-03-01T21:50:48.158Z,9.38
2024-03-01T21:53:15.814Z,9.63
2024-03-01T21:55:43.136Z,9.73
2024-03-01T21:58:10.300Z,8.40
2024-03-01T22:00:37.068Z,8.93
2024-03-01T22:03:04.326Z,8.70
2024-03-01T22:05:31.518Z,9.52
2024-03-01T22:08:07.109Z,9.00
2024-03-01T22:10:40.671Z,8.60
2024-03-01T22:13:07.897Z,9.10
2024-03-01T22:15:35.109Z,9.82
2024-03-01T22:18:02.467Z,9.15
2024-03-01T22:20:29.293Z,8.43
2024-03-01T22:22:56.398Z,8.95
2024-03-01T22:25:23.593Z,9.15
2024-03-01T22:27:51.022Z,9.20
2024-03-01T22:30:18.119Z,8.40
2024-03-01T22:32:45.516Z,9.23
2024-03-01T22:35:13.182Z,9.23
2024-03-01T22:37:40.379Z,8.50
2024-03-01T22:40:08.344Z,8.68
2024-03-01T22:42:36.773Z,9.40
2024-03-01T22:45:04.604Z,9.23
2024-03-01T22:47:33.070Z,9.00
2024-03-01T22:50:00.457Z,9.48
2024-03-01T22:52:37.020Z,9.05
2024-03-01T22:55:07.007Z,9.90
2024-03-01T22:57:39.262Z,10.02
2024-03-01T23:00:20.361Z,11.50
2024-03-01T23:02:55.009Z,9.82
2024-03-01T23:05:22.149Z,12.57
2024-03-01T23:07:49.250Z,12.10
2024-03-01T23:10:17.415Z,11.43
2024-03-01T23:12:44.601Z,12.60
2024-03-01T23:15:11.519Z,12.40
2024-03-01T23:17:38.758Z,12.68
2024-03-01T23:20:06.864Z,12.60
2024-03-01T23:22:34.255Z,12.35
2024-03-01T23:25:01.057Z,13.00
2024-03-01T23:27:27.967Z,12.50
2024-03-01T23:29:55.326Z,11.52
2024-03-01T23:32:22.496Z,12.60
2024-03-01T23:34:50.542Z,14.57
2024-03-01T23:37:17.337Z,12.88
2024-03-01T23:39:44.592Z,13.75
2024-03-01T23:42:11.924Z,13.45
2024-03-01T23:44:39.121Z,11.43
2024-03-01T23:47:06.428Z,9.98
2024-03-01T23:49:33.700Z,11.18
2024-03-01T23:52:00.868Z,11.80
2024-03-01T23:54:27.744Z,11.55
2024-03-01T23:56:56.538Z,11.60
2024-03-01T23:59:23.776Z,12.13
